sensor_id;sensor_type;location;lat;lon;timestamp;pressure;altitude;pressure_sealevel;temperature;humidity
42887;BME280;29032;56.028;92.904;2023-04-01T00:04:46;101812.66;;;-8.75;40.23
42887;BME280;29032;56.028;92.904;2023-04-01T00:10:11;101825.13;;;-8.91;40.26
42887;BME280;29032;56.028;92.904;2023-04-01T00:15:13;101830.94;;;-9.02;40.32
42887;BME280;29032;56.028;92.904;2023-04-01T00:20:16;101832.03;;;-9.03;40.97
42887;BME280;29032;56.028;92.904;2023-04-01T00:25:20;101857.41;;;-8.91;40.93
42887;BME280;29032;56.028;92.904;2023-04-01T00:30:23;101858.47;;;-8.84;40.98
42887;BME280;29032;56.028;92.904;2023-04-01T00:35:26;101864.94;;;-8.64;40.92
42887;BME280;29032;56.028;92.904;2023-04-01T00:40:32;101865.09;;;-8.48;40.46
42887;BME280;29032;56.028;92.904;2023-04-01T00:45:54;101878.25;;;-8.47;40.24
42887;BME280;29032;56.028;92.904;2023-04-01T00:50:59;101899.16;;;-8.64;40.75
42887;BME280;29032;56.028;92.904;2023-04-01T00:56:05;101903.34;;;-8.96;40.76
42887;BME280;29032;56.028;92.904;2023-04-01T01:01:10;101912.69;;;-8.94;41.77
42887;BME280;29032;56.028;92.904;2023-04-01T01:06:21;101915.72;;;-8.95;41.86
42887;BME280;29032;56.028;92.904;2023-04-01T01:11:33;101922.38;;;-9.02;42.24
42887;BME280;29032;56.028;92.904;2023-04-01T01:16:42;101921.88;;;-8.74;41.97
42887;BME280;29032;56.028;92.904;2023-04-01T01:22:04;101935.34;;;-8.74;41.92
42887;BME280;29032;56.028;92.904;2023-04-01T01:27:12;101953.25;;;-8.78;42.35
42887;BME280;29032;56.028;92.904;2023-04-01T01:33:02;101947.50;;;-8.68;42.42
42887;BME280;29032;56.028;92.904;2023-04-01T01:38:15;101956.00;;;-8.45;42.17
42887;BME280;29032;56.028;92.904;2023-04-01T01:43:25;101948.97;;;-8.37;42.35
42887;BME280;29032;56.028;92.904;2023-04-01T01:48:29;101972.16;;;-8.24;42.33
42887;BME280;29032;56.028;92.904;2023-04-01T01:53:35;101969.91;;;-8.22;42.58
42887;BME280;29032;56.028;92.904;2023-04-01T01:58:41;101984.06;;;-8.13;42.12
42887;BME280;29032;56.028;92.904;2023-04-01T02:04:05;101984.72;;;-7.95;42.20
42887;BME280;29032;56.028;92.904;2023-04-01T02:09:10;101991.84;;;-7.66;42.47
42887;BME280;29032;56.028;92.904;2023-04-01T02:14:15;102007.88;;;-7.24;41.23
42887;BME280;29032;56.028;92.904;2023-04-01T02:19:20;102007.91;;;-7.12;41.65
42887;BME280;29032;56.028;92.904;2023-04-01T02:24:28;102009.56;;;-6.95;41.35
42887;BME280;29032;56.028;92.904;2023-04-01T02:29:32;102021.13;;;-6.70;40.99
42887;BME280;29032;56.028;92.904;2023-04-01T02:34:35;102023.97;;;-6.39;41.40
42887;BME280;29032;56.028;92.904;2023-04-01T02:39:40;102022.81;;;-6.26;40.43
42887;BME280;29032;56.028;92.904;2023-04-01T02:44:43;102039.09;;;-5.82;40.66
42887;BME280;29032;56.028;92.904;2023-04-01T02:49:45;102050.81;;;-5.78;39.56
42887;BME280;29032;56.028;92.904;2023-04-01T02:54:49;102058.84;;;-5.93;40.21
42887;BME280;29032;56.028;92.904;2023-04-01T02:59:52;102072.47;;;-5.62;39.41
42887;BME280;29032;56.028;92.904;2023-04-01T03:04:54;102066.47;;;-5.55;39.31
42887;BME280;29032;56.028;92.904;2023-04-01T03:09:58;102066.88;;;-5.69;39.25
42887;BME280;29032;56.028;92.904;2023-04-01T03:15:00;102064.66;;;-6.07;40.15
42887;BME280;29032;56.028;92.904;2023-04-01T03:20:02;102086.63;;;-5.81;39.72
42887;BME280;29032;56.028;92.904;2023-04-01T03:25:26;102077.38;;;-5.80;39.23
42887;BME280;29032;56.028;92.904;2023-04-01T03:30:29;102087.13;;;-5.63;38.35
42887;BME280;29032;56.028;92.904;2023-04-01T03:35:31;102088.66;;;-5.78;38.53
42887;BME280;29032;56.028;92.904;2023-04-01T03:40:35;102097.59;;;-5.89;39.45
42887;BME280;29032;56.028;92.904;2023-04-01T03:45:43;102104.97;;;-5.74;38.11
42887;BME280;29032;56.028;92.904;2023-04-01T03:50:48;102100.22;;;-5.65;38.37
42887;BME280;29032;56.028;92.904;2023-04-01T03:55:52;102107.56;;;-5.22;37.52
42887;BME280;29032;56.028;92.904;2023-04-01T04:00:55;102116.91;;;-5.03;37.55
42887;BME280;29032;56.028;92.904;2023-04-01T04:06:17;102107.31;;;-4.85;37.14
42887;BME280;29032;56.028;92.904;2023-04-01T04:11:22;102115.84;;;-4.67;36.88
42887;BME280;29032;56.028;92.904;2023-04-01T04:16:45;102123.19;;;-4.68;36.33
42887;BME280;29032;56.028;92.904;2023-04-01T04:22:07;102107.13;;;-4.92;37.11
42887;BME280;29032;56.028;92.904;2023-04-01T04:27:11;102120.25;;;-4.94;37.85
42887;BME280;29032;56.028;92.904;2023-04-01T04:32:26;102124.25;;;-4.88;38.23
42887;BME280;29032;56.028;92.904;2023-04-01T04:37:29;102113.41;;;-5.04;37.73
42887;BME280;29032;56.028;92.904;2023-04-01T04:42:53;102119.97;;;-5.05;37.41
42887;BME280;29032;56.028;92.904;2023-04-01T04:47:56;102126.22;;;-5.17;38.11
42887;BME280;29032;56.028;92.904;2023-04-01T04:52:59;102136.84;;;-4.80;37.10
42887;BME280;29032;56.028;92.904;2023-04-01T04:58:02;102138.13;;;-4.74;36.48
42887;BME280;29032;56.028;92.904;2023-04-01T05:03:05;102121.19;;;-4.71;37.57
42887;BME280;29032;56.028;92.904;2023-04-01T05:08:08;102127.81;;;-4.52;37.14
42887;BME280;29032;56.028;92.904;2023-04-01T05:13:30;102131.59;;;-4.57;37.31
42887;BME280;29032;56.028;92.904;2023-04-01T05:18:52;102131.50;;;-4.61;37.18
42887;BME280;29032;56.028;92.904;2023-04-01T05:23:56;102136.81;;;-4.48;36.45
42887;BME280;29032;56.028;92.904;2023-04-01T05:29:19;102137.09;;;-4.02;36.57
42887;BME280;29032;56.028;92.904;2023-04-01T05:34:29;102123.81;;;-3.50;35.87
42887;BME280;29032;56.028;92.904;2023-04-01T05:39:35;102132.53;;;-2.75;35.65
42887;BME280;29032;56.028;92.904;2023-04-01T05:44:58;102137.06;;;-1.73;34.63
42887;BME280;29032;56.028;92.904;2023-04-01T05:50:26;102139.59;;;-0.83;33.53
42887;BME280;29032;56.028;92.904;2023-04-01T05:55:29;102130.00;;;-0.04;32.19
42887;BME280;29032;56.028;92.904;2023-04-01T06:00:33;102141.97;;;0.60;31.18
42887;BME280;29032;56.028;92.904;2023-04-01T06:11:26;102131.47;;;0.66;32.53
42887;BME280;29032;56.028;92.904;2023-04-01T06:17:03;102140.53;;;0.99;31.72
42887;BME280;29032;56.028;92.904;2023-04-01T06:27:42;102139.72;;;0.95;34.31
42887;BME280;29032;56.028;92.904;2023-04-01T06:38:24;102126.75;;;1.98;31.14
42887;BME280;29032;56.028;92.904;2023-04-01T06:43:42;102133.97;;;2.55;31.14
42887;BME280;29032;56.028;92.904;2023-04-01T06:49:18;102142.69;;;2.32;31.31
42887;BME280;29032;56.028;92.904;2023-04-01T06:54:45;102129.88;;;2.00;30.44
42887;BME280;29032;56.028;92.904;2023-04-01T07:00:13;102127.22;;;1.51;31.11
42887;BME280;29032;56.028;92.904;2023-04-01T07:05:20;102126.78;;;1.88;31.93
42887;BME280;29032;56.028;92.904;2023-04-01T07:10:28;102137.31;;;2.03;30.03
42887;BME280;29032;56.028;92.904;2023-04-01T07:15:59;102139.25;;;2.03;32.09
42887;BME280;29032;56.028;92.904;2023-04-01T07:21:11;102141.22;;;1.95;31.86
42887;BME280;29032;56.028;92.904;2023-04-01T07:26:35;102144.31;;;2.15;30.56
42887;BME280;29032;56.028;92.904;2023-04-01T07:32:12;102143.75;;;2.56;31.81
42887;BME280;29032;56.028;92.904;2023-04-01T07:37:25;102139.50;;;2.44;31.31
42887;BME280;29032;56.028;92.904;2023-04-01T07:42:38;102140.53;;;2.72;30.56
42887;BME280;29032;56.028;92.904;2023-04-01T07:48:01;102138.78;;;2.99;31.57
42887;BME280;29032;56.028;92.904;2023-04-01T07:53:31;102134.50;;;2.98;30.03
42887;BME280;29032;56.028;92.904;2023-04-01T07:58:43;102127.06;;;2.25;30.10
42887;BME280;29032;56.028;92.904;2023-04-01T08:04:24;102126.81;;;1.66;30.92
42887;BME280;29032;56.028;92.904;2023-04-01T08:09:55;102118.66;;;0.99;31.69
42887;BME280;29032;56.028;92.904;2023-04-01T08:15:21;102128.41;;;1.07;30.64
42887;BME280;29032;56.028;92.904;2023-04-01T08:20:46;102136.63;;;1.35;31.56
42887;BME280;29032;56.028;92.904;2023-04-01T08:25:55;102130.34;;;1.78;31.28
42887;BME280;29032;56.028;92.904;2023-04-01T08:31:04;102128.00;;;2.71;31.09
42887;BME280;29032;56.028;92.904;2023-04-01T08:36:10;102127.06;;;3.47;29.42
42887;BME280;29032;56.028;92.904;2023-04-01T08:41:53;102131.75;;;3.88;30.16
42887;BME280;29032;56.028;92.904;2023-04-01T08:47:18;102122.50;;;4.09;29.33
42887;BME280;29032;56.028;92.904;2023-04-01T08:52:35;102135.47;;;4.39;29.17
42887;BME280;29032;56.028;92.904;2023-04-01T08:57:48;102133.66;;;4.59;28.67
42887;BME280;29032;56.028;92.904;2023-04-01T09:03:33;102143.41;;;3.99;29.09
42887;BME280;29032;56.028;92.904;2023-04-01T09:08:58;102143.19;;;3.83;30.26
42887;BME280;29032;56.028;92.904;2023-04-01T09:14:31;102146.91;;;4.00;30.29
42887;BME280;29032;56.028;92.904;2023-04-01T09:20:09;102149.56;;;3.73;29.12
42887;BME280;29032;56.028;92.904;2023-04-01T09:25:49;102137.31;;;3.36;30.20
42887;BME280;29032;56.028;92.904;2023-04-01T09:31:20;102138.16;;;3.33;30.11
42887;BME280;29032;56.028;92.904;2023-04-01T09:37:18;102146.56;;;3.11;30.21
42887;BME280;29032;56.028;92.904;2023-04-01T09:42:34;102144.72;;;2.91;29.73
42887;BME280;29032;56.028;92.904;2023-04-01T09:48:02;102141.66;;;2.78;29.77
42887;BME280;29032;56.028;92.904;2023-04-01T09:53:41;102137.13;;;2.50;29.33
42887;BME280;29032;56.028;92.904;2023-04-01T10:11:27;102135.78;;;1.85;30.99
42887;BME280;29032;56.028;92.904;2023-04-01T10:16:59;102137.34;;;1.93;30.20
42887;BME280;29032;56.028;92.904;2023-04-01T10:46:08;102143.25;;;1.59;30.60
42887;BME280;29032;56.028;92.904;2023-04-01T10:51:34;102151.88;;;1.43;30.24
42887;BME280;29032;56.028;92.904;2023-04-01T10:56:47;102166.72;;;1.14;29.69
42887;BME280;29032;56.028;92.904;2023-04-01T11:08:35;102174.91;;;1.46;30.02
42887;BME280;29032;56.028;92.904;2023-04-01T11:25:14;102181.13;;;1.04;29.80
42887;BME280;29032;56.028;92.904;2023-04-01T11:30:46;102169.38;;;0.89;29.29
42887;BME280;29032;56.028;92.904;2023-04-01T11:35:59;102178.75;;;0.77;30.56
42887;BME280;29032;56.028;92.904;2023-04-01T11:41:34;102178.75;;;0.77;31.06
42887;BME280;29032;56.028;92.904;2023-04-01T11:47:18;102184.28;;;0.99;30.79
42887;BME280;29032;56.028;92.904;2023-04-01T11:52:37;102181.94;;;1.08;30.26
42887;BME280;29032;56.028;92.904;2023-04-01T11:58:42;102190.94;;;1.15;31.04
42887;BME280;29032;56.028;92.904;2023-04-01T12:09:44;102194.41;;;0.95;31.96
42887;BME280;29032;56.028;92.904;2023-04-01T12:14:59;102204.19;;;0.99;31.55
42887;BME280;29032;56.028;92.904;2023-04-01T12:20:21;102196.75;;;1.03;32.12
42887;BME280;29032;56.028;92.904;2023-04-01T12:25:43;102199.84;;;0.87;32.21
42887;BME280;29032;56.028;92.904;2023-04-01T12:31:22;102205.56;;;0.43;31.97
42887;BME280;29032;56.028;92.904;2023-04-01T12:36:42;102209.25;;;0.10;32.32
42887;BME280;29032;56.028;92.904;2023-04-01T12:41:54;102214.25;;;-0.06;32.57
42887;BME280;29032;56.028;92.904;2023-04-01T12:47:38;102211.16;;;-0.01;32.76
42887;BME280;29032;56.028;92.904;2023-04-01T12:52:58;102219.59;;;-0.17;32.51
42887;BME280;29032;56.028;92.904;2023-04-01T13:03:44;102224.56;;;-0.33;32.92
42887;BME280;29032;56.028;92.904;2023-04-01T13:09:18;102220.50;;;-0.54;32.85
42887;BME280;29032;56.028;92.904;2023-04-01T13:14:35;102233.22;;;-0.68;33.20
42887;BME280;29032;56.028;92.904;2023-04-01T13:19:47;102239.81;;;-0.69;33.30
42887;BME280;29032;56.028;92.904;2023-04-01T13:24:57;102235.88;;;-0.72;34.20
42887;BME280;29032;56.028;92.904;2023-04-01T13:30:18;102242.56;;;-0.66;33.80
42887;BME280;29032;56.028;92.904;2023-04-01T13:35:39;102244.59;;;-0.59;34.20
42887;BME280;29032;56.028;92.904;2023-04-01T13:41:09;102254.53;;;-0.37;32.72
42887;BME280;29032;56.028;92.904;2023-04-01T13:46:42;102254.72;;;-0.15;32.95
42887;BME280;29032;56.028;92.904;2023-04-01T13:52:08;102266.09;;;-0.06;32.22
42887;BME280;29032;56.028;92.904;2023-04-01T13:57:29;102262.25;;;0.02;32.37
42887;BME280;29032;56.028;92.904;2023-04-01T14:02:51;102267.78;;;0.13;32.34
42887;BME280;29032;56.028;92.904;2023-04-01T14:08:08;102270.50;;;0.09;32.01
42887;BME280;29032;56.028;92.904;2023-04-01T14:13:39;102261.91;;;0.07;32.39
42887;BME280;29032;56.028;92.904;2023-04-01T14:18:53;102264.28;;;0.12;32.79
42887;BME280;29032;56.028;92.904;2023-04-01T14:24:08;102264.22;;;0.05;32.51
42887;BME280;29032;56.028;92.904;2023-04-01T14:29:52;102274.28;;;-0.06;32.51
42887;BME280;29032;56.028;92.904;2023-04-01T14:35:17;102270.78;;;-0.07;32.45
42887;BME280;29032;56.028;92.904;2023-04-01T14:40:39;102264.50;;;-0.14;32.60
42887;BME280;29032;56.028;92.904;2023-04-01T14:46:23;102267.09;;;-0.29;32.60
42887;BME280;29032;56.028;92.904;2023-04-01T14:51:32;102271.25;;;-0.42;32.59
42887;BME280;29032;56.028;92.904;2023-04-01T14:56:39;102265.31;;;-0.51;32.51
42887;BME280;29032;56.028;92.904;2023-04-01T15:01:47;102275.81;;;-0.57;32.67
42887;BME280;29032;56.028;92.904;2023-04-01T15:07:03;102271.47;;;-0.61;33.05
42887;BME280;29032;56.028;92.904;2023-04-01T15:12:19;102269.75;;;-0.77;33.05
42887;BME280;29032;56.028;92.904;2023-04-01T15:17:42;102276.56;;;-0.93;33.43
42887;BME280;29032;56.028;92.904;2023-04-01T15:22:57;102278.78;;;-1.06;33.43
42887;BME280;29032;56.028;92.904;2023-04-01T15:28:10;102280.56;;;-1.17;34.01
42887;BME280;29032;56.028;92.904;2023-04-01T15:33:38;102290.59;;;-1.25;33.66
42887;BME280;29032;56.028;92.904;2023-04-01T15:38:47;102289.22;;;-1.42;34.11
42887;BME280;29032;56.028;92.904;2023-04-01T15:43:52;102285.84;;;-1.58;33.96
42887;BME280;29032;56.028;92.904;2023-04-01T15:49:03;102290.28;;;-1.76;34.45
42887;BME280;29032;56.028;92.904;2023-04-01T15:54:46;102296.09;;;-2.01;34.84
42887;BME280;29032;56.028;92.904;2023-04-01T16:00:23;102295.16;;;-2.12;35.21
42887;BME280;29032;56.028;92.904;2023-04-01T16:05:34;102292.19;;;-2.26;35.46
42887;BME280;29032;56.028;92.904;2023-04-01T16:10:58;102301.50;;;-2.27;35.34
42887;BME280;29032;56.028;92.904;2023-04-01T16:16:15;102301.69;;;-2.40;35.54
42887;BME280;29032;56.028;92.904;2023-04-01T16:21:33;102314.06;;;-2.42;35.52
42887;BME280;29032;56.028;92.904;2023-04-01T16:26:39;102311.56;;;-2.51;36.12
42887;BME280;29032;56.028;92.904;2023-04-01T16:31:50;102318.44;;;-2.57;35.82
42887;BME280;29032;56.028;92.904;2023-04-01T16:37:00;102310.59;;;-2.62;36.08
42887;BME280;29032;56.028;92.904;2023-04-01T16:42:20;102316.19;;;-2.55;35.80
42887;BME280;29032;56.028;92.904;2023-04-01T16:47:30;102324.41;;;-2.71;36.41
42887;BME280;29032;56.028;92.904;2023-04-01T16:58:24;102322.31;;;-2.77;36.30
42887;BME280;29032;56.028;92.904;2023-04-01T17:03:33;102325.19;;;-2.70;36.21
42887;BME280;29032;56.028;92.904;2023-04-01T17:14:12;102336.91;;;-2.66;36.73
42887;BME280;29032;56.028;92.904;2023-04-01T17:19:32;102337.66;;;-2.69;36.10
42887;BME280;29032;56.028;92.904;2023-04-01T17:24:51;102334.63;;;-2.83;36.41
42887;BME280;29032;56.028;92.904;2023-04-01T17:30:18;102337.88;;;-2.97;36.02
42887;BME280;29032;56.028;92.904;2023-04-01T17:35:28;102342.69;;;-3.06;36.19
42887;BME280;29032;56.028;92.904;2023-04-01T17:40:59;102343.94;;;-3.04;36.63
42887;BME280;29032;56.028;92.904;2023-04-01T17:46:11;102341.34;;;-3.16;36.61
42887;BME280;29032;56.028;92.904;2023-04-01T17:51:31;102340.47;;;-3.20;36.69
42887;BME280;29032;56.028;92.904;2023-04-01T17:57:06;102345.06;;;-3.24;36.60
42887;BME280;29032;56.028;92.904;2023-04-01T18:02:21;102339.88;;;-3.29;36.52
42887;BME280;29032;56.028;92.904;2023-04-01T18:13:41;102272.25;;;-3.89;36.51
42887;BME280;29032;56.028;92.904;2023-04-01T18:18:52;102331.72;;;-3.64;37.48
42887;BME280;29032;56.028;92.904;2023-04-01T18:24:10;102330.59;;;-3.79;37.68
42887;BME280;29032;56.028;92.904;2023-04-01T18:29:25;102336.66;;;-4.01;37.93
42887;BME280;29032;56.028;92.904;2023-04-01T18:34:42;102335.41;;;-4.04;37.35
42887;BME280;29032;56.028;92.904;2023-04-01T18:39:49;102334.91;;;-4.10;38.37
42887;BME280;29032;56.028;92.904;2023-04-01T18:44:57;102329.91;;;-4.08;38.25
42887;BME280;29032;56.028;92.904;2023-04-01T18:50:11;102331.91;;;-4.05;38.23
42887;BME280;29032;56.028;92.904;2023-04-01T18:55:29;102331.84;;;-4.24;38.16
42887;BME280;29032;56.028;92.904;2023-04-01T19:00:36;102334.06;;;-4.57;39.09
42887;BME280;29032;56.028;92.904;2023-04-01T19:05:40;102333.34;;;-4.82;39.00
42887;BME280;29032;56.028;92.904;2023-04-01T19:10:50;102336.34;;;-5.00;39.02
42887;BME280;29032;56.028;92.904;2023-04-01T19:16:24;102324.97;;;-5.05;39.27
42887;BME280;29032;56.028;92.904;2023-04-01T19:21:35;102336.72;;;-5.01;39.31
42887;BME280;29032;56.028;92.904;2023-04-01T19:26:42;102322.41;;;-5.14;39.66
42887;BME280;29032;56.028;92.904;2023-04-01T19:31:53;102318.13;;;-5.15;39.61
42887;BME280;29032;56.028;92.904;2023-04-01T19:37:26;102321.13;;;-5.04;39.41
42887;BME280;29032;56.028;92.904;2023-04-01T19:42:35;102318.84;;;-5.02;39.63
42887;BME280;29032;56.028;92.904;2023-04-01T19:47:51;102319.75;;;-4.98;39.24
42887;BME280;29032;56.028;92.904;2023-04-01T19:53:20;102326.66;;;-5.01;39.94
42887;BME280;29032;56.028;92.904;2023-04-01T19:58:32;102323.88;;;-4.89;39.49
42887;BME280;29032;56.028;92.904;2023-04-01T20:03:39;102321.66;;;-4.87;39.75
42887;BME280;29032;56.028;92.904;2023-04-01T20:08:53;102325.38;;;-4.91;39.24
42887;BME280;29032;56.028;92.904;2023-04-01T20:14:08;102313.78;;;-5.04;39.15
42887;BME280;29032;56.028;92.904;2023-04-01T20:19:35;102317.44;;;-5.24;39.55
42887;BME280;29032;56.028;92.904;2023-04-01T20:24:43;102306.91;;;-5.42;39.65
42887;BME280;29032;56.028;92.904;2023-04-01T20:30:30;102306.19;;;-5.38;39.69
42887;BME280;29032;56.028;92.904;2023-04-01T20:35:44;102296.75;;;-5.45;40.00
42887;BME280;29032;56.028;92.904;2023-04-01T20:40:51;102306.13;;;-5.42;39.89
42887;BME280;29032;56.028;92.904;2023-04-01T20:46:00;102300.38;;;-5.53;40.27
42887;BME280;29032;56.028;92.904;2023-04-01T20:51:05;102299.94;;;-5.67;40.46
42887;BME280;29032;56.028;92.904;2023-04-01T20:56:35;102297.22;;;-5.55;40.40
42887;BME280;29032;56.028;92.904;2023-04-01T21:01:46;102298.22;;;-5.47;39.88
42887;BME280;29032;56.028;92.904;2023-04-01T21:12:43;102299.13;;;-5.43;39.75
42887;BME280;29032;56.028;92.904;2023-04-01T21:18:00;102286.66;;;-5.72;40.47
42887;BME280;29032;56.028;92.904;2023-04-01T21:23:23;102304.91;;;-5.69;40.09
42887;BME280;29032;56.028;92.904;2023-04-01T21:28:39;102299.63;;;-5.78;40.76
42887;BME280;29032;56.028;92.904;2023-04-01T21:34:01;102303.78;;;-5.68;40.02
42887;BME280;29032;56.028;92.904;2023-04-01T21:39:20;102305.91;;;-5.74;39.91
42887;BME280;29032;56.028;92.904;2023-04-01T21:44:36;102302.75;;;-5.76;39.55
42887;BME280;29032;56.028;92.904;2023-04-01T21:50:19;102303.22;;;-5.86;40.26
42887;BME280;29032;56.028;92.904;2023-04-01T22:02:15;102305.53;;;-6.33;39.72
42887;BME280;29032;56.028;92.904;2023-04-01T22:07:47;102313.75;;;-6.42;40.83
42887;BME280;29032;56.028;92.904;2023-04-01T22:12:58;102303.03;;;-6.38;40.86
42887;BME280;29032;56.028;92.904;2023-04-01T22:18:08;102301.56;;;-6.36;40.90
42887;BME280;29032;56.028;92.904;2023-04-01T22:23:39;102296.41;;;-6.29;40.63
42887;BME280;29032;56.028;92.904;2023-04-01T22:28:49;102297.53;;;-6.30;40.66
42887;BME280;29032;56.028;92.904;2023-04-01T22:33:58;102298.91;;;-6.23;40.26
42887;BME280;29032;56.028;92.904;2023-04-01T22:39:16;102311.44;;;-6.07;40.35
42887;BME280;29032;56.028;92.904;2023-04-01T22:44:37;102303.66;;;-6.08;39.75
42887;BME280;29032;56.028;92.904;2023-04-01T22:49:41;102314.47;;;-5.96;39.23
42887;BME280;29032;56.028;92.904;2023-04-01T22:54:50;102316.94;;;-6.15;40.40
42887;BME280;29032;56.028;92.904;2023-04-01T22:59:58;102317.84;;;-6.11;39.83
42887;BME280;29032;56.028;92.904;2023-04-01T23:05:05;102327.09;;;-6.12;39.76
42887;BME280;29032;56.028;92.904;2023-04-01T23:10:18;102327.19;;;-6.09;40.23
42887;BME280;29032;56.028;92.904;2023-04-01T23:15:23;102320.34;;;-6.06;39.80
42887;BME280;29032;56.028;92.904;2023-04-01T23:21:03;102322.16;;;-5.98;38.83
42887;BME280;29032;56.028;92.904;2023-04-01T23:26:15;102329.59;;;-6.07;39.31
42887;BME280;29032;56.028;92.904;2023-04-01T23:31:35;102316.03;;;-6.19;39.26
42887;BME280;29032;56.028;92.904;2023-04-01T23:37:01;102336.94;;;-6.29;40.41
42887;BME280;29032;56.028;92.904;2023-04-01T23:42:12;102331.78;;;-6.34;40.19
42887;BME280;29032;56.028;92.904;2023-04-01T23:47:19;102339.50;;;-6.57;40.86
42887;BME280;29032;56.028;92.904;2023-04-01T23:52:24;102342.25;;;-6.65;40.34
42887;BME280;29032;56.028;92.904;2023-04-01T23:57:30;102347.81;;;-6.83;41.18
